sensor_id;sensor_type;location;lat;lon;timestamp;temperature;humidity
77582;DHT22;66726;52.388;9.986;2023-08-30T00:01:45;15.80;99.90
77582;DHT22;66726;52.388;9.986;2023-08-30T00:04:17;15.90;99.90
77582;DHT22;66726;52.388;9.986;2023-08-30T00:06:50;15.90;99.90
77582;DHT22;66726;52.388;9.986;2023-08-30T00:09:24;15.70;99.90
77582;DHT22;66726;52.388;9.986;2023-08-30T00:11:55;15.70;99.90
77582;DHT22;66726;52.388;9.986;2023-08-30T00:14:28;15.70;99.90
77582;DHT22;66726;52.388;9.986;2023-08-30T00:17:01;15.90;99.90
77582;DHT22;66726;52.388;9.986;2023-08-30T00:19:32;15.70;99.90
77582;DHT22;66726;52.388;9.986;2023-08-30T00:22:05;15.70;99.90
77582;DHT22;66726;52.388;9.986;2023-08-30T00:24:37;15.50;99.90
77582;DHT22;66726;52.388;9.986;2023-08-30T00:27:09;15.50;99.90
77582;DHT22;66726;52.388;9.986;2023-08-30T00:29:43;15.50;99.90
77582;DHT22;66726;52.388;9.986;2023-08-30T00:32:15;15.40;99.90
77582;DHT22;66726;52.388;9.986;2023-08-30T00:34:49;15.40;99.90
77582;DHT22;66726;52.388;9.986;2023-08-30T00:37:21;15.50;99.90
77582;DHT22;66726;52.388;9.986;2023-08-30T00:39:53;15.40;99.90
77582;DHT22;66726;52.388;9.986;2023-08-30T00:42:25;15.30;99.90
77582;DHT22;66726;52.388;9.986;2023-08-30T00:44:58;15.30;99.90
77582;DHT22;66726;52.388;9.986;2023-08-30T00:47:30;15.30;99.90
77582;DHT22;66726;52.388;9.986;2023-08-30T00:50:03;15.40;99.90
77582;DHT22;66726;52.388;9.986;2023-08-30T00:52:36;15.20;99.90
77582;DHT22;66726;52.388;9.986;2023-08-30T00:55:09;15.20;99.90
77582;DHT22;66726;52.388;9.986;2023-08-30T00:57:41;15.10;99.90
77582;DHT22;66726;52.388;9.986;2023-08-30T01:00:17;15.20;99.90
77582;DHT22;66726;52.388;9.986;2023-08-30T01:02:49;15.20;99.90
77582;DHT22;66726;52.388;9.986;2023-08-30T01:05:21;15.20;99.90
77582;DHT22;66726;52.388;9.986;2023-08-30T01:07:54;15.10;99.90
77582;DHT22;66726;52.388;9.986;2023-08-30T01:10:30;15.20;99.90
77582;DHT22;66726;52.388;9.986;2023-08-30T01:13:20;15.10;99.90
77582;DHT22;66726;52.388;9.986;2023-08-30T01:15:56;15.20;99.90
77582;DHT22;66726;52.388;9.986;2023-08-30T01:18:29;15.10;99.90
77582;DHT22;66726;52.388;9.986;2023-08-30T01:21:08;15.20;99.90
77582;DHT22;66726;52.388;9.986;2023-08-30T01:23:56;15.30;99.90
77582;DHT22;66726;52.388;9.986;2023-08-30T01:26:38;15.10;99.90
77582;DHT22;66726;52.388;9.986;2023-08-30T01:29:17;14.90;99.90
77582;DHT22;66726;52.388;9.986;2023-08-30T01:31:51;14.80;99.90
77582;DHT22;66726;52.388;9.986;2023-08-30T01:34:24;14.70;99.90
77582;DHT22;66726;52.388;9.986;2023-08-30T01:36:56;14.70;99.90
77582;DHT22;66726;52.388;9.986;2023-08-30T01:39:30;14.70;99.90
77582;DHT22;66726;52.388;9.986;2023-08-30T01:42:03;14.80;99.90
77582;DHT22;66726;52.388;9.986;2023-08-30T01:44:38;14.60;99.90
77582;DHT22;66726;52.388;9.986;2023-08-30T01:47:13;14.60;99.90
77582;DHT22;66726;52.388;9.986;2023-08-30T01:49:46;14.70;99.90
77582;DHT22;66726;52.388;9.986;2023-08-30T01:52:20;14.60;99.90
77582;DHT22;66726;52.388;9.986;2023-08-30T01:54:53;14.50;99.90
77582;DHT22;66726;52.388;9.986;2023-08-30T01:57:26;14.50;99.90
77582;DHT22;66726;52.388;9.986;2023-08-30T01:59:59;14.50;99.90
77582;DHT22;66726;52.388;9.986;2023-08-30T02:02:32;14.60;99.90
77582;DHT22;66726;52.388;9.986;2023-08-30T02:05:06;14.50;99.90
77582;DHT22;66726;52.388;9.986;2023-08-30T02:07:40;14.40;99.90
77582;DHT22;66726;52.388;9.986;2023-08-30T02:10:17;14.50;99.90
77582;DHT22;66726;52.388;9.986;2023-08-30T02:12:54;14.40;99.90
77582;DHT22;66726;52.388;9.986;2023-08-30T02:15:33;14.40;99.90
77582;DHT22;66726;52.388;9.986;2023-08-30T02:18:07;14.40;99.90
77582;DHT22;66726;52.388;9.986;2023-08-30T02:20:39;14.40;99.90
77582;DHT22;66726;52.388;9.986;2023-08-30T02:23:11;14.30;99.90
77582;DHT22;66726;52.388;9.986;2023-08-30T02:25:43;14.30;99.90
77582;DHT22;66726;52.388;9.986;2023-08-30T02:28:15;14.20;99.90
77582;DHT22;66726;52.388;9.986;2023-08-30T02:30:49;14.00;99.90
77582;DHT22;66726;52.388;9.986;2023-08-30T02:33:22;14.10;99.90
77582;DHT22;66726;52.388;9.986;2023-08-30T02:35:54;14.00;99.90
77582;DHT22;66726;52.388;9.986;2023-08-30T02:38:26;14.00;99.90
77582;DHT22;66726;52.388;9.986;2023-08-30T02:40:58;13.90;99.90
77582;DHT22;66726;52.388;9.986;2023-08-30T02:43:30;14.00;99.90
77582;DHT22;66726;52.388;9.986;2023-08-30T02:46:03;14.10;99.90
77582;DHT22;66726;52.388;9.986;2023-08-30T02:48:35;14.30;99.90
77582;DHT22;66726;52.388;9.986;2023-08-30T02:51:06;14.10;99.90
77582;DHT22;66726;52.388;9.986;2023-08-30T02:53:38;14.10;99.90
77582;DHT22;66726;52.388;9.986;2023-08-30T02:56:10;14.10;99.90
77582;DHT22;66726;52.388;9.986;2023-08-30T02:58:42;14.00;99.90
77582;DHT22;66726;52.388;9.986;2023-08-30T03:01:15;13.90;99.90
77582;DHT22;66726;52.388;9.986;2023-08-30T03:03:47;13.90;99.90
77582;DHT22;66726;52.388;9.986;2023-08-30T03:06:19;14.00;99.90
77582;DHT22;66726;52.388;9.986;2023-08-30T03:08:53;13.90;99.90
77582;DHT22;66726;52.388;9.986;2023-08-30T03:11:24;13.90;99.90
77582;DHT22;66726;52.388;9.986;2023-08-30T03:13:56;13.90;99.90
77582;DHT22;66726;52.388;9.986;2023-08-30T03:16:30;13.80;99.90
77582;DHT22;66726;52.388;9.986;2023-08-30T03:19:02;13.90;99.90
77582;DHT22;66726;52.388;9.986;2023-08-30T03:21:34;13.80;99.90
77582;DHT22;66726;52.388;9.986;2023-08-30T03:24:06;13.60;99.90
77582;DHT22;66726;52.388;9.986;2023-08-30T03:26:39;13.50;99.90
77582;DHT22;66726;52.388;9.986;2023-08-30T03:29:11;13.50;99.90
77582;DHT22;66726;52.388;9.986;2023-08-30T03:31:44;13.70;99.90
77582;DHT22;66726;52.388;9.986;2023-08-30T03:34:16;13.60;99.90
77582;DHT22;66726;52.388;9.986;2023-08-30T03:36:48;13.60;99.90
77582;DHT22;66726;52.388;9.986;2023-08-30T03:39:22;13.60;99.90
77582;DHT22;66726;52.388;9.986;2023-08-30T03:41:54;13.40;99.90
77582;DHT22;66726;52.388;9.986;2023-08-30T03:44:26;13.60;99.90
77582;DHT22;66726;52.388;9.986;2023-08-30T03:46:59;13.50;99.90
77582;DHT22;66726;52.388;9.986;2023-08-30T03:49:31;13.50;99.90
77582;DHT22;66726;52.388;9.986;2023-08-30T03:52:03;13.60;99.90
77582;DHT22;66726;52.388;9.986;2023-08-30T03:54:35;13.50;99.90
77582;DHT22;66726;52.388;9.986;2023-08-30T03:57:07;13.40;99.90
77582;DHT22;66726;52.388;9.986;2023-08-30T03:59:39;13.20;99.90
77582;DHT22;66726;52.388;9.986;2023-08-30T04:02:12;13.30;99.90
77582;DHT22;66726;52.388;9.986;2023-08-30T04:04:46;13.30;99.90
77582;DHT22;66726;52.388;9.986;2023-08-30T04:07:18;13.40;99.90
77582;DHT22;66726;52.388;9.986;2023-08-30T04:09:50;13.40;99.90
77582;DHT22;66726;52.388;9.986;2023-08-30T04:12:22;13.50;99.90
77582;DHT22;66726;52.388;9.986;2023-08-30T04:14:53;13.40;99.90
77582;DHT22;66726;52.388;9.986;2023-08-30T04:17:27;13.30;99.90
77582;DHT22;66726;52.388;9.986;2023-08-30T04:19:59;13.20;99.90
77582;DHT22;66726;52.388;9.986;2023-08-30T04:22:32;13.30;99.90
77582;DHT22;66726;52.388;9.986;2023-08-30T04:25:05;13.40;99.90
77582;DHT22;66726;52.388;9.986;2023-08-30T04:27:38;13.30;99.90
77582;DHT22;66726;52.388;9.986;2023-08-30T04:30:13;13.20;99.90
77582;DHT22;66726;52.388;9.986;2023-08-30T04:32:46;13.10;99.90
77582;DHT22;66726;52.388;9.986;2023-08-30T04:35:18;13.10;99.90
77582;DHT22;66726;52.388;9.986;2023-08-30T04:37:50;13.20;99.90
77582;DHT22;66726;52.388;9.986;2023-08-30T04:40:21;13.10;99.90
77582;DHT22;66726;52.388;9.986;2023-08-30T04:42:54;13.20;99.90
77582;DHT22;66726;52.388;9.986;2023-08-30T04:45:26;13.20;99.90
77582;DHT22;66726;52.388;9.986;2023-08-30T04:47:59;13.20;99.90
77582;DHT22;66726;52.388;9.986;2023-08-30T04:50:32;13.20;99.90
77582;DHT22;66726;52.388;9.986;2023-08-30T04:53:03;13.30;99.90
77582;DHT22;66726;52.388;9.986;2023-08-30T04:55:35;13.10;99.90
77582;DHT22;66726;52.388;9.986;2023-08-30T04:58:07;13.20;99.90
77582;DHT22;66726;52.388;9.986;2023-08-30T05:00:39;13.20;99.90
77582;DHT22;66726;52.388;9.986;2023-08-30T05:03:13;13.20;99.90
77582;DHT22;66726;52.388;9.986;2023-08-30T05:05:45;13.20;99.90
77582;DHT22;66726;52.388;9.986;2023-08-30T05:08:17;13.20;99.90
77582;DHT22;66726;52.388;9.986;2023-08-30T05:10:49;13.20;99.90
77582;DHT22;66726;52.388;9.986;2023-08-30T05:13:22;13.10;99.90
77582;DHT22;66726;52.388;9.986;2023-08-30T05:15:54;13.20;99.90
77582;DHT22;66726;52.388;9.986;2023-08-30T05:18:27;13.30;99.90
77582;DHT22;66726;52.388;9.986;2023-08-30T05:20:59;13.20;99.90
77582;DHT22;66726;52.388;9.986;2023-08-30T05:23:32;13.20;99.90
77582;DHT22;66726;52.388;9.986;2023-08-30T05:26:06;13.30;99.90
77582;DHT22;66726;52.388;9.986;2023-08-30T05:28:38;13.30;99.90
77582;DHT22;66726;52.388;9.986;2023-08-30T05:31:10;13.40;99.90
77582;DHT22;66726;52.388;9.986;2023-08-30T05:33:43;13.50;99.90
77582;DHT22;66726;52.388;9.986;2023-08-30T05:36:15;13.40;99.90
77582;DHT22;66726;52.388;9.986;2023-08-30T05:38:47;13.50;99.90
77582;DHT22;66726;52.388;9.986;2023-08-30T05:41:19;13.60;99.90
77582;DHT22;66726;52.388;9.986;2023-08-30T05:43:51;13.60;99.90
77582;DHT22;66726;52.388;9.986;2023-08-30T05:46:23;13.50;99.90
77582;DHT22;66726;52.388;9.986;2023-08-30T05:48:56;13.70;99.90
77582;DHT22;66726;52.388;9.986;2023-08-30T05:51:29;13.80;99.90
77582;DHT22;66726;52.388;9.986;2023-08-30T05:54:00;13.60;99.90
77582;DHT22;66726;52.388;9.986;2023-08-30T05:56:32;13.60;99.90
77582;DHT22;66726;52.388;9.986;2023-08-30T05:59:04;13.50;99.90
77582;DHT22;66726;52.388;9.986;2023-08-30T06:01:36;13.50;99.90
77582;DHT22;66726;52.388;9.986;2023-08-30T06:04:10;13.60;99.90
77582;DHT22;66726;52.388;9.986;2023-08-30T06:06:42;13.60;99.90
77582;DHT22;66726;52.388;9.986;2023-08-30T06:09:14;13.70;99.90
77582;DHT22;66726;52.388;9.986;2023-08-30T06:11:46;13.70;99.90
77582;DHT22;66726;52.388;9.986;2023-08-30T06:14:18;13.90;99.90
77582;DHT22;66726;52.388;9.986;2023-08-30T06:16:51;13.80;99.90
77582;DHT22;66726;52.388;9.986;2023-08-30T06:19:24;13.90;99.90
77582;DHT22;66726;52.388;9.986;2023-08-30T06:21:56;14.00;99.90
77582;DHT22;66726;52.388;9.986;2023-08-30T06:24:28;14.10;99.90
77582;DHT22;66726;52.388;9.986;2023-08-30T06:27:00;14.00;99.90
77582;DHT22;66726;52.388;9.986;2023-08-30T06:29:32;14.20;99.90
77582;DHT22;66726;52.388;9.986;2023-08-30T06:32:04;14.20;99.90
77582;DHT22;66726;52.388;9.986;2023-08-30T06:34:37;14.30;99.90
77582;DHT22;66726;52.388;9.986;2023-08-30T06:37:09;14.50;99.90
77582;DHT22;66726;52.388;9.986;2023-08-30T06:39:41;14.50;99.90
77582;DHT22;66726;52.388;9.986;2023-08-30T06:42:13;14.50;99.90
77582;DHT22;66726;52.388;9.986;2023-08-30T06:44:45;14.70;99.90
77582;DHT22;66726;52.388;9.986;2023-08-30T06:47:17;14.60;99.90
77582;DHT22;66726;52.388;9.986;2023-08-30T06:49:50;14.70;99.90
77582;DHT22;66726;52.388;9.986;2023-08-30T06:52:22;14.80;99.90
77582;DHT22;66726;52.388;9.986;2023-08-30T06:54:54;14.90;99.90
77582;DHT22;66726;52.388;9.986;2023-08-30T06:57:26;14.80;99.90
77582;DHT22;66726;52.388;9.986;2023-08-30T06:59:58;14.90;99.90
77582;DHT22;66726;52.388;9.986;2023-08-30T07:02:34;14.90;99.90
77582;DHT22;66726;52.388;9.986;2023-08-30T07:05:10;15.10;99.90
77582;DHT22;66726;52.388;9.986;2023-08-30T07:07:42;15.10;99.90
77582;DHT22;66726;52.388;9.986;2023-08-30T07:10:13;15.10;99.90
77582;DHT22;66726;52.388;9.986;2023-08-30T07:12:45;15.10;99.90
77582;DHT22;66726;52.388;9.986;2023-08-30T07:15:17;15.10;99.90
77582;DHT22;66726;52.388;9.986;2023-08-30T07:17:50;15.10;99.90
77582;DHT22;66726;52.388;9.986;2023-08-30T07:20:26;15.10;99.90
77582;DHT22;66726;52.388;9.986;2023-08-30T07:22:58;15.20;99.90
77582;DHT22;66726;52.388;9.986;2023-08-30T07:25:31;15.30;99.90
77582;DHT22;66726;52.388;9.986;2023-08-30T07:28:06;15.30;99.90
77582;DHT22;66726;52.388;9.986;2023-08-30T07:30:38;15.20;99.90
77582;DHT22;66726;52.388;9.986;2023-08-30T07:33:10;15.20;99.90
77582;DHT22;66726;52.388;9.986;2023-08-30T07:35:43;15.20;99.90
77582;DHT22;66726;52.388;9.986;2023-08-30T07:38:15;15.40;99.90
77582;DHT22;66726;52.388;9.986;2023-08-30T07:40:47;15.40;99.90
77582;DHT22;66726;52.388;9.986;2023-08-30T07:43:19;15.40;99.90
77582;DHT22;66726;52.388;9.986;2023-08-30T07:45:51;15.50;99.90
77582;DHT22;66726;52.388;9.986;2023-08-30T07:48:23;15.40;99.90
77582;DHT22;66726;52.388;9.986;2023-08-30T07:50:56;15.50;99.90
77582;DHT22;66726;52.388;9.986;2023-08-30T07:53:29;15.50;99.90
77582;DHT22;66726;52.388;9.986;2023-08-30T07:56:01;15.60;99.90
77582;DHT22;66726;52.388;9.986;2023-08-30T07:58:33;15.70;99.90
77582;DHT22;66726;52.388;9.986;2023-08-30T08:01:05;15.70;99.90
77582;DHT22;66726;52.388;9.986;2023-08-30T08:03:39;15.80;99.90
77582;DHT22;66726;52.388;9.986;2023-08-30T08:06:32;15.80;99.90
77582;DHT22;66726;52.388;9.986;2023-08-30T08:09:06;15.90;99.90
77582;DHT22;66726;52.388;9.986;2023-08-30T08:11:38;15.90;99.90
77582;DHT22;66726;52.388;9.986;2023-08-30T08:14:12;16.00;99.90
77582;DHT22;66726;52.388;9.986;2023-08-30T08:16:44;16.10;99.90
77582;DHT22;66726;52.388;9.986;2023-08-30T08:19:16;16.20;99.90
77582;DHT22;66726;52.388;9.986;2023-08-30T08:21:54;16.20;99.90
77582;DHT22;66726;52.388;9.986;2023-08-30T08:24:26;16.30;99.90
77582;DHT22;66726;52.388;9.986;2023-08-30T08:26:58;16.30;99.90
77582;DHT22;66726;52.388;9.986;2023-08-30T08:29:30;16.50;99.90
77582;DHT22;66726;52.388;9.986;2023-08-30T08:32:02;16.50;99.90
77582;DHT22;66726;52.388;9.986;2023-08-30T08:34:35;16.50;99.90
77582;DHT22;66726;52.388;9.986;2023-08-30T08:37:09;16.70;99.90
77582;DHT22;66726;52.388;9.986;2023-08-30T08:39:43;16.80;99.90
77582;DHT22;66726;52.388;9.986;2023-08-30T08:42:20;16.70;99.90
77582;DHT22;66726;52.388;9.986;2023-08-30T08:44:55;16.80;99.90
77582;DHT22;66726;52.388;9.986;2023-08-30T08:47:31;16.90;99.90
77582;DHT22;66726;52.388;9.986;2023-08-30T08:50:04;17.00;99.90
77582;DHT22;66726;52.388;9.986;2023-08-30T08:52:39;17.00;99.90
77582;DHT22;66726;52.388;9.986;2023-08-30T08:55:31;17.00;99.90
77582;DHT22;66726;52.388;9.986;2023-08-30T08:58:06;17.10;99.90
77582;DHT22;66726;52.388;9.986;2023-08-30T09:00:38;17.20;99.90
77582;DHT22;66726;52.388;9.986;2023-08-30T09:03:11;17.30;99.90
77582;DHT22;66726;52.388;9.986;2023-08-30T09:05:46;17.40;99.90
77582;DHT22;66726;52.388;9.986;2023-08-30T09:08:21;17.40;99.90
77582;DHT22;66726;52.388;9.986;2023-08-30T09:10:55;17.50;99.90
77582;DHT22;66726;52.388;9.986;2023-08-30T09:13:29;17.60;99.90
77582;DHT22;66726;52.388;9.986;2023-08-30T09:16:00;17.70;99.90
77582;DHT22;66726;52.388;9.986;2023-08-30T09:18:42;17.90;99.90
77582;DHT22;66726;52.388;9.986;2023-08-30T09:21:32;17.90;99.90
77582;DHT22;66726;52.388;9.986;2023-08-30T09:24:06;17.90;99.90
77582;DHT22;66726;52.388;9.986;2023-08-30T09:26:39;18.00;99.90
77582;DHT22;66726;52.388;9.986;2023-08-30T09:29:21;18.00;99.90
77582;DHT22;66726;52.388;9.986;2023-08-30T09:31:55;18.20;99.90
77582;DHT22;66726;52.388;9.986;2023-08-30T09:34:27;18.20;99.90
77582;DHT22;66726;52.388;9.986;2023-08-30T09:36:59;18.30;99.90
77582;DHT22;66726;52.388;9.986;2023-08-30T09:39:36;18.30;99.90
77582;DHT22;66726;52.388;9.986;2023-08-30T09:42:18;18.40;99.80
77582;DHT22;66726;52.388;9.986;2023-08-30T09:44:50;18.50;99.90
77582;DHT22;66726;52.388;9.986;2023-08-30T09:47:25;18.50;99.90
77582;DHT22;66726;52.388;9.986;2023-08-30T09:50:00;18.50;99.90
77582;DHT22;66726;52.388;9.986;2023-08-30T09:52:34;18.60;99.90
77582;DHT22;66726;52.388;9.986;2023-08-30T09:55:10;18.70;99.90
77582;DHT22;66726;52.388;9.986;2023-08-30T09:57:43;18.70;99.20
77582;DHT22;66726;52.388;9.986;2023-08-30T10:00:17;18.60;99.50
77582;DHT22;66726;52.388;9.986;2023-08-30T10:02:50;18.70;99.10
77582;DHT22;66726;52.388;9.986;2023-08-30T10:05:44;18.80;99.40
77582;DHT22;66726;52.388;9.986;2023-08-30T10:08:16;18.90;99.70
77582;DHT22;66726;52.388;9.986;2023-08-30T10:10:52;19.10;99.90
77582;DHT22;66726;52.388;9.986;2023-08-30T10:13:23;19.10;99.10
77582;DHT22;66726;52.388;9.986;2023-08-30T10:16:00;19.20;99.40
77582;DHT22;66726;52.388;9.986;2023-08-30T10:18:37;19.30;98.50
77582;DHT22;66726;52.388;9.986;2023-08-30T10:21:20;19.20;98.20
77582;DHT22;66726;52.388;9.986;2023-08-30T10:23:53;19.30;98.30
77582;DHT22;66726;52.388;9.986;2023-08-30T10:26:29;19.30;99.10
77582;DHT22;66726;52.388;9.986;2023-08-30T10:29:03;19.20;97.70
77582;DHT22;66726;52.388;9.986;2023-08-30T10:31:39;19.20;98.00
77582;DHT22;66726;52.388;9.986;2023-08-30T10:34:16;19.20;98.50
77582;DHT22;66726;52.388;9.986;2023-08-30T10:36:58;19.30;98.00
77582;DHT22;66726;52.388;9.986;2023-08-30T10:39:36;19.20;96.90
77582;DHT22;66726;52.388;9.986;2023-08-30T10:42:14;19.30;97.40
77582;DHT22;66726;52.388;9.986;2023-08-30T10:44:52;19.30;97.30
77582;DHT22;66726;52.388;9.986;2023-08-30T10:47:41;19.20;96.90
77582;DHT22;66726;52.388;9.986;2023-08-30T10:50:13;19.20;97.70
77582;DHT22;66726;52.388;9.986;2023-08-30T10:52:54;19.20;97.50
77582;DHT22;66726;52.388;9.986;2023-08-30T10:55:26;19.20;98.00
77582;DHT22;66726;52.388;9.986;2023-08-30T10:58:03;19.20;97.00
77582;DHT22;66726;52.388;9.986;2023-08-30T11:00:35;19.30;96.90
77582;DHT22;66726;52.388;9.986;2023-08-30T11:03:12;19.30;96.90
77582;DHT22;66726;52.388;9.986;2023-08-30T11:05:45;19.30;97.90
77582;DHT22;66726;52.388;9.986;2023-08-30T11:08:18;19.40;97.50
77582;DHT22;66726;52.388;9.986;2023-08-30T11:10:51;19.40;97.60
77582;DHT22;66726;52.388;9.986;2023-08-30T11:13:32;19.40;96.90
77582;DHT22;66726;52.388;9.986;2023-08-30T11:16:04;19.40;96.10
77582;DHT22;66726;52.388;9.986;2023-08-30T11:18:38;19.40;96.10
77582;DHT22;66726;52.388;9.986;2023-08-30T11:21:11;19.40;96.90
77582;DHT22;66726;52.388;9.986;2023-08-30T11:23:43;19.50;96.20
77582;DHT22;66726;52.388;9.986;2023-08-30T11:26:17;19.50;96.80
77582;DHT22;66726;52.388;9.986;2023-08-30T11:28:51;19.60;96.40
77582;DHT22;66726;52.388;9.986;2023-08-30T11:31:23;19.60;96.60
77582;DHT22;66726;52.388;9.986;2023-08-30T11:33:56;19.70;96.00
77582;DHT22;66726;52.388;9.986;2023-08-30T11:36:31;19.90;96.70
77582;DHT22;66726;52.388;9.986;2023-08-30T11:39:06;20.00;95.50
77582;DHT22;66726;52.388;9.986;2023-08-30T11:41:39;20.10;96.00
77582;DHT22;66726;52.388;9.986;2023-08-30T11:44:13;20.20;96.70
77582;DHT22;66726;52.388;9.986;2023-08-30T11:46:45;20.10;96.30
77582;DHT22;66726;52.388;9.986;2023-08-30T11:49:18;20.20;96.20
77582;DHT22;66726;52.388;9.986;2023-08-30T11:51:50;20.30;95.20
77582;DHT22;66726;52.388;9.986;2023-08-30T11:54:25;20.50;95.20
77582;DHT22;66726;52.388;9.986;2023-08-30T11:56:57;20.60;94.20
77582;DHT22;66726;52.388;9.986;2023-08-30T11:59:30;20.50;93.90
77582;DHT22;66726;52.388;9.986;2023-08-30T12:02:05;20.40;93.20
77582;DHT22;66726;52.388;9.986;2023-08-30T12:04:42;20.30;93.40
77582;DHT22;66726;52.388;9.986;2023-08-30T12:07:23;20.30;94.00
77582;DHT22;66726;52.388;9.986;2023-08-30T12:10:06;20.30;95.10
77582;DHT22;66726;52.388;9.986;2023-08-30T12:12:43;20.30;95.50
77582;DHT22;66726;52.388;9.986;2023-08-30T12:15:17;20.40;95.00
77582;DHT22;66726;52.388;9.986;2023-08-30T12:17:54;20.50;93.40
77582;DHT22;66726;52.388;9.986;2023-08-30T12:20:35;20.50;94.30
77582;DHT22;66726;52.388;9.986;2023-08-30T12:23:07;20.60;94.10
77582;DHT22;66726;52.388;9.986;2023-08-30T12:25:57;20.70;94.60
77582;DHT22;66726;52.388;9.986;2023-08-30T12:28:31;20.70;94.40
77582;DHT22;66726;52.388;9.986;2023-08-30T12:31:06;20.80;94.10
77582;DHT22;66726;52.388;9.986;2023-08-30T12:33:38;20.90;93.80
77582;DHT22;66726;52.388;9.986;2023-08-30T12:36:11;20.90;93.70
77582;DHT22;66726;52.388;9.986;2023-08-30T12:38:42;20.90;93.20
77582;DHT22;66726;52.388;9.986;2023-08-30T12:41:15;21.00;93.70
77582;DHT22;66726;52.388;9.986;2023-08-30T12:43:49;21.20;93.30
77582;DHT22;66726;52.388;9.986;2023-08-30T12:46:22;21.40;91.90
77582;DHT22;66726;52.388;9.986;2023-08-30T12:48:54;21.40;91.70
77582;DHT22;66726;52.388;9.986;2023-08-30T12:51:27;21.60;92.00
77582;DHT22;66726;52.388;9.986;2023-08-30T12:53:59;21.70;92.40
77582;DHT22;66726;52.388;9.986;2023-08-30T12:56:31;21.90;91.80
77582;DHT22;66726;52.388;9.986;2023-08-30T12:59:03;22.00;92.00
77582;DHT22;66726;52.388;9.986;2023-08-30T13:01:36;22.10;91.20
77582;DHT22;66726;52.388;9.986;2023-08-30T13:04:09;22.30;92.10
77582;DHT22;66726;52.388;9.986;2023-08-30T13:06:41;22.20;90.60
77582;DHT22;66726;52.388;9.986;2023-08-30T13:09:13;22.30;91.20
77582;DHT22;66726;52.388;9.986;2023-08-30T13:11:45;22.40;90.80
77582;DHT22;66726;52.388;9.986;2023-08-30T13:14:17;22.50;91.00
77582;DHT22;66726;52.388;9.986;2023-08-30T13:16:50;22.70;90.40
77582;DHT22;66726;52.388;9.986;2023-08-30T13:19:22;22.80;89.50
77582;DHT22;66726;52.388;9.986;2023-08-30T13:21:54;22.80;86.70
77582;DHT22;66726;52.388;9.986;2023-08-30T13:24:26;22.80;87.80
77582;DHT22;66726;52.388;9.986;2023-08-30T13:26:58;23.00;87.00
77582;DHT22;66726;52.388;9.986;2023-08-30T13:29:30;22.90;88.00
77582;DHT22;66726;52.388;9.986;2023-08-30T13:32:03;22.70;86.80
77582;DHT22;66726;52.388;9.986;2023-08-30T13:34:36;22.50;88.60
77582;DHT22;66726;52.388;9.986;2023-08-30T13:37:08;22.40;88.90
77582;DHT22;66726;52.388;9.986;2023-08-30T13:39:40;22.30;89.10
77582;DHT22;66726;52.388;9.986;2023-08-30T13:42:12;22.20;88.90
77582;DHT22;66726;52.388;9.986;2023-08-30T13:44:44;22.10;89.90
77582;DHT22;66726;52.388;9.986;2023-08-30T13:47:17;22.10;90.10
77582;DHT22;66726;52.388;9.986;2023-08-30T13:49:49;22.10;89.40
77582;DHT22;66726;52.388;9.986;2023-08-30T13:52:21;22.00;89.90
77582;DHT22;66726;52.388;9.986;2023-08-30T13:54:53;22.00;90.10
77582;DHT22;66726;52.388;9.986;2023-08-30T13:57:25;22.00;89.80
77582;DHT22;66726;52.388;9.986;2023-08-30T13:59:56;21.90;90.10
77582;DHT22;66726;52.388;9.986;2023-08-30T14:02:32;21.90;87.50
77582;DHT22;66726;52.388;9.986;2023-08-30T14:05:04;21.80;87.70
77582;DHT22;66726;52.388;9.986;2023-08-30T14:07:37;21.70;88.20
77582;DHT22;66726;52.388;9.986;2023-08-30T14:10:09;21.70;88.80
77582;DHT22;66726;52.388;9.986;2023-08-30T14:12:49;21.70;87.60
77582;DHT22;66726;52.388;9.986;2023-08-30T14:15:22;21.60;86.20
77582;DHT22;66726;52.388;9.986;2023-08-30T14:17:55;21.50;86.40
77582;DHT22;66726;52.388;9.986;2023-08-30T14:20:28;21.60;86.80
77582;DHT22;66726;52.388;9.986;2023-08-30T14:23:00;21.40;84.50
77582;DHT22;66726;52.388;9.986;2023-08-30T14:25:32;21.40;81.30
77582;DHT22;66726;52.388;9.986;2023-08-30T14:28:05;21.20;82.20
77582;DHT22;66726;52.388;9.986;2023-08-30T14:30:37;21.20;81.50
77582;DHT22;66726;52.388;9.986;2023-08-30T14:33:11;21.20;82.50
77582;DHT22;66726;52.388;9.986;2023-08-30T14:35:44;21.20;82.30
77582;DHT22;66726;52.388;9.986;2023-08-30T14:38:16;21.20;82.00
77582;DHT22;66726;52.388;9.986;2023-08-30T14:40:54;21.20;82.30
77582;DHT22;66726;52.388;9.986;2023-08-30T14:43:27;21.20;82.30
77582;DHT22;66726;52.388;9.986;2023-08-30T14:46:03;21.20;82.80
77582;DHT22;66726;52.388;9.986;2023-08-30T14:48:41;21.20;83.70
77582;DHT22;66726;52.388;9.986;2023-08-30T14:51:13;21.20;85.30
77582;DHT22;66726;52.388;9.986;2023-08-30T14:53:45;21.20;84.70
77582;DHT22;66726;52.388;9.986;2023-08-30T14:56:17;21.30;85.00
77582;DHT22;66726;52.388;9.986;2023-08-30T14:58:49;21.30;85.00
77582;DHT22;66726;52.388;9.986;2023-08-30T15:01:21;21.30;85.60
77582;DHT22;66726;52.388;9.986;2023-08-30T15:03:55;21.30;86.20
77582;DHT22;66726;52.388;9.986;2023-08-30T15:06:27;21.30;87.30
77582;DHT22;66726;52.388;9.986;2023-08-30T15:09:00;21.30;87.90
77582;DHT22;66726;52.388;9.986;2023-08-30T15:11:32;21.20;84.70
77582;DHT22;66726;52.388;9.986;2023-08-30T15:14:04;21.10;85.10
77582;DHT22;66726;52.388;9.986;2023-08-30T15:16:36;21.10;86.00
77582;DHT22;66726;52.388;9.986;2023-08-30T15:19:10;21.10;88.50
77582;DHT22;66726;52.388;9.986;2023-08-30T15:21:42;21.10;89.10
77582;DHT22;66726;52.388;9.986;2023-08-30T15:24:15;21.10;88.90
77582;DHT22;66726;52.388;9.986;2023-08-30T15:26:47;21.10;89.10
77582;DHT22;66726;52.388;9.986;2023-08-30T15:29:19;21.10;88.50
77582;DHT22;66726;52.388;9.986;2023-08-30T15:31:50;21.10;90.30
77582;DHT22;66726;52.388;9.986;2023-08-30T15:34:24;21.10;90.90
77582;DHT22;66726;52.388;9.986;2023-08-30T15:36:56;21.10;90.70
77582;DHT22;66726;52.388;9.986;2023-08-30T15:39:28;21.10;90.90
77582;DHT22;66726;52.388;9.986;2023-08-30T15:42:00;20.90;90.70
77582;DHT22;66726;52.388;9.986;2023-08-30T15:44:32;20.70;91.10
77582;DHT22;66726;52.388;9.986;2023-08-30T15:47:03;20.60;91.90
77582;DHT22;66726;52.388;9.986;2023-08-30T15:49:37;20.60;91.60
77582;DHT22;66726;52.388;9.986;2023-08-30T15:52:09;20.50;92.00
77582;DHT22;66726;52.388;9.986;2023-08-30T15:54:40;20.40;92.20
77582;DHT22;66726;52.388;9.986;2023-08-30T15:57:13;20.30;92.20
77582;DHT22;66726;52.388;9.986;2023-08-30T15:59:45;20.20;93.00
77582;DHT22;66726;52.388;9.986;2023-08-30T16:02:17;20.10;92.70
77582;DHT22;66726;52.388;9.986;2023-08-30T16:04:51;20.00;92.80
77582;DHT22;66726;52.388;9.986;2023-08-30T16:07:23;20.00;93.10
77582;DHT22;66726;52.388;9.986;2023-08-30T16:09:55;20.00;93.40